Tucumcari ASC

2020-09-27 20:05:00

  • imperial
Date Time Air Temperature Relative Humidity Dewpoint Windchill Heat Index Wind Speed Wind Dir. Rain Solar Radiation Soil Temperature
2m 2m 3m 3m 10cm
US/Mountain F % F F F MPH deg in MJ/m^2 F
max avg avg
2020-09-26 20:10:00 83.0 10.8 22.6 83.0 83.0 0.0 2.8 1.2 134.2 151.0 0.00 0.0000000 86.6
2020-09-26 20:15:00 83.2 10.7 22.6 83.2 83.2 2.4 3.0 1.7 165.7 185.1 0.00 0.0000000 86.4
2020-09-26 20:20:00 83.7 10.6 22.6 83.7 83.7 4.6 4.6 3.0 185.8 185.7 0.00 0.0000000 86.2
2020-09-26 20:25:00 83.0 10.9 22.9 83.0 83.0 2.1 4.2 2.7 158.8 178.1 0.00 0.0000000 86.0
2020-09-26 20:30:00 82.4 11.3 23.2 82.4 82.4 2.6 3.0 2.6 163.5 171.3 0.00 0.0000000 85.8
2020-09-26 20:35:00 81.9 11.4 23.0 81.9 81.9 1.7 3.0 2.4 212.0 184.2 0.00 0.0000000 85.6
2020-09-26 20:40:00 81.8 11.5 23.1 81.8 81.8 2.2 3.3 2.5 229.5 224.2 0.00 0.0000000 85.4
2020-09-26 20:45:00 81.0 12.4 24.3 81.0 81.0 5.8 5.8 3.7 250.5 216.3 0.00 0.0000000 85.2
2020-09-26 20:50:00 77.0 16.9 28.8 77.0 77.0 6.7 7.4 5.8 343.0 288.3 0.00 0.0000000 85.0
2020-09-26 20:55:00 76.7 14.0 23.9 76.7 76.7 4.6 7.1 4.8 300.0 318.7 0.00 0.0000000 84.8
2020-09-26 21:00:00 78.1 13.2 23.6 78.1 78.1 4.7 5.5 4.6 317.1 314.2 0.00 0.0000000 84.6
2020-09-26 21:05:00 77.9 13.2 23.5 77.9 77.9 5.6 5.6 5.1 311.9 315.3 0.00 0.0000000 84.4
2020-09-26 21:10:00 78.1 13.0 23.2 78.1 78.1 6.3 6.7 5.9 340.7 323.8 0.00 0.0000000 84.3
2020-09-26 21:15:00 78.4 12.8 23.0 78.4 78.4 5.5 6.0 5.0 324.5 327.1 0.00 0.0000000 84.1
2020-09-26 21:20:00 79.6 12.3 23.1 79.6 79.6 6.2 7.8 5.7 323.6 324.8 0.00 0.0000000 83.9
2020-09-26 21:25:00 78.7 14.1 25.6 78.7 78.7 5.5 7.2 5.8 295.7 311.1 0.00 0.0000000 83.7
2020-09-26 21:30:00 76.2 16.7 27.7 76.2 76.2 5.3 8.8 5.9 280.0 283.2 0.00 0.0000000 83.6
2020-09-26 21:35:00 75.0 15.2 24.4 75.0 75.0 3.3 5.5 3.9 241.0 248.0 0.00 0.0000000 83.4
2020-09-26 21:40:00 75.1 15.2 24.6 75.1 75.1 2.8 3.3 2.6 222.7 239.6 0.00 0.0000000 83.2
2020-09-26 21:45:00 75.9 14.3 23.7 75.9 75.9 3.1 4.6 3.4 292.9 231.3 0.00 0.0000000 83.1
2020-09-26 21:50:00 75.9 15.2 25.2 75.9 75.9 3.7 4.4 3.4 261.1 273.5 0.00 0.0000000 82.9
2020-09-26 21:55:00 74.5 16.7 26.4 74.5 74.5 4.2 4.9 3.9 243.0 260.5 0.00 0.0000000 82.7
2020-09-26 22:00:00 76.4 13.7 23.0 76.4 76.4 4.2 5.6 4.7 246.9 244.3 0.00 0.0000000 82.5
2020-09-26 22:05:00 77.5 12.7 22.2 77.5 77.5 4.6 5.1 3.9 268.6 249.3 0.00 0.0000000 82.4
2020-09-26 22:10:00 77.5 13.7 24.1 77.5 77.5 4.6 5.1 4.3 257.5 259.9 0.00 0.0000000 82.2
2020-09-26 22:15:00 76.2 14.5 24.4 76.2 76.2 5.8 5.8 5.1 272.3 263.3 0.00 0.0000000 82.1
2020-09-26 22:20:00 75.6 14.6 24.1 75.6 75.6 5.6 5.8 5.4 275.8 272.2 0.00 0.0000000 81.9
2020-09-26 22:25:00 75.3 15.1 24.6 75.3 75.3 4.0 6.3 4.7 317.0 274.7 0.00 0.0000000 81.8
2020-09-26 22:30:00 75.2 13.7 22.2 75.2 75.2 4.6 4.6 3.8 327.9 321.9 0.00 0.0000000 81.6
2020-09-26 22:35:00 75.8 13.7 22.7 75.8 75.8 3.8 5.1 4.0 301.2 301.1 0.00 0.0000000 81.5
2020-09-26 22:40:00 75.5 14.6 23.9 75.5 75.5 4.0 5.1 4.3 284.8 293.3 0.00 0.0000000 81.4
2020-09-26 22:45:00 74.8 14.6 23.4 74.8 74.8 3.1 4.6 3.6 300.7 301.2 0.00 0.0000000 81.2
2020-09-26 22:50:00 74.0 15.1 23.5 74.0 74.0 3.5 4.2 3.7 294.2 305.7 0.00 0.0000000 81.1
2020-09-26 22:55:00 73.6 15.4 23.6 73.6 73.6 4.2 4.9 4.0 312.1 295.2 0.00 0.0000000 80.9
2020-09-26 23:00:00 73.0 15.2 22.8 73.0 73.0 5.1 5.1 4.2 301.9 302.2 0.00 0.0000000 80.8
2020-09-26 23:05:00 74.0 14.2 22.1 74.0 74.0 5.3 6.2 4.9 292.3 306.3 0.00 0.0000000 80.7
2020-09-26 23:10:00 73.9 14.1 21.9 73.9 73.9 4.7 6.2 5.2 313.5 307.8 0.00 0.0000000 80.5
2020-09-26 23:15:00 73.5 14.7 22.5 73.5 73.5 6.2 6.2 5.3 293.5 309.4 0.00 0.0000000 80.4
2020-09-26 23:20:00 73.0 15.9 24.0 73.0 73.0 4.9 6.3 5.3 293.8 302.1 0.00 0.0000000 80.3
2020-09-26 23:25:00 72.2 15.9 23.3 72.2 72.2 5.6 5.8 5.3 283.7 301.8 0.00 0.0000000 80.2
2020-09-26 23:30:00 72.5 15.6 23.1 72.5 72.5 6.5 6.9 6.4 268.0 268.1 0.00 0.0000000 80.0
2020-09-26 23:35:00 72.3 16.0 23.6 72.3 72.3 6.0 7.6 6.7 281.9 277.0 0.00 0.0000000 79.9
2020-09-26 23:40:00 73.1 14.5 21.9 73.1 73.1 5.8 7.2 6.2 277.8 280.7 0.00 0.0000000 79.8
2020-09-26 23:45:00 72.6 15.0 22.3 72.6 72.6 5.5 5.8 5.2 267.2 270.0 0.00 0.0000000 79.7
2020-09-26 23:50:00 71.9 15.6 22.6 71.9 71.9 4.0 5.5 4.4 304.4 288.3 0.00 0.0000000 79.6
2020-09-26 23:55:00 71.9 14.8 21.4 71.9 71.9 3.5 4.2 3.8 310.7 304.8 0.00 0.0000000 79.4
2020-09-27 00:00:00 72.3 14.1 20.5 72.3 72.3 3.1 4.0 3.4 314.1 335.6 0.00 0.0000000 79.3
2020-09-27 00:05:00 72.6 13.9 20.4 72.6 72.6 3.7 4.6 3.3 236.7 293.4 0.00 0.0000000 79.2
2020-09-27 00:10:00 72.2 15.7 23.1 72.2 72.2 4.7 5.6 4.5 302.7 289.7 0.00 0.0000000 79.1
2020-09-27 00:15:00 71.3 15.9 22.6 71.3 71.3 5.3 5.5 4.9 324.8 305.3 0.00 0.0000000 78.9
2020-09-27 00:20:00 72.5 13.0 18.8 72.5 72.5 5.6 7.1 4.9 344.3 335.9 0.00 0.0000000 78.8
2020-09-27 00:25:00 73.0 12.4 18.2 73.0 73.0 6.3 6.3 4.6 344.6 338.7 0.00 0.0000000 78.7
2020-09-27 00:30:00 72.4 12.6 18.1 72.4 72.4 5.6 6.9 6.0 312.3 322.9 0.00 0.0000000 78.5
2020-09-27 00:35:00 71.3 14.1 19.8 71.3 71.3 6.0 6.7 5.9 308.8 315.0 0.00 0.0000000 78.4
2020-09-27 00:40:00 70.0 15.6 21.1 70.0 70.0 5.1 7.1 6.0 297.4 310.7 0.00 0.0000000 78.3
2020-09-27 00:45:00 69.6 15.8 21.1 69.6 69.6 5.3 5.8 5.2 318.9 310.4 0.00 0.0000000 78.2
2020-09-27 00:50:00 70.3 14.1 19.1 70.3 70.3 5.6 6.2 5.6 313.4 320.2 0.00 0.0000000 78.0
2020-09-27 00:55:00 69.8 15.6 20.9 69.8 69.8 5.3 6.2 5.3 302.8 316.2 0.00 0.0000000 77.9
2020-09-27 01:00:00 68.6 17.8 23.1 68.6 68.6 6.3 6.7 6.0 298.3 303.4 0.00 0.0000000 77.8
2020-09-27 01:05:00 68.7 17.0 22.1 68.7 68.7 5.8 6.7 6.2 302.3 304.2 0.00 0.0000000 77.6
2020-09-27 01:10:00 69.3 16.6 22.0 69.3 69.3 6.2 6.5 6.1 304.2 303.5 0.00 0.0000000 77.6
2020-09-27 01:15:00 69.2 16.4 21.6 69.2 69.2 8.1 8.1 7.0 297.9 298.4 0.00 0.0000000 77.4
2020-09-27 01:20:00 69.8 16.8 22.7 69.8 69.8 6.9 8.3 7.5 304.3 296.1 0.00 0.0000000 77.3
2020-09-27 01:25:00 70.2 13.9 18.5 70.2 70.2 3.3 6.7 5.1 335.2 333.6 0.00 0.0000000 77.2
2020-09-27 01:30:00 73.5 11.6 17.0 73.5 73.5 10.8 10.8 6.4 312.9 341.4 0.00 0.0000000 77.1
2020-09-27 01:35:00 75.5 10.9 17.0 75.5 75.5 4.7 12.4 7.9 329.2 324.9 0.00 0.0000000 77.0
2020-09-27 01:40:00 73.8 11.6 17.2 73.8 73.8 7.2 8.5 6.4 312.0 331.4 0.00 0.0000000 76.9
2020-09-27 01:45:00 72.5 12.6 18.0 72.5 72.5 8.0 8.0 6.9 320.8 316.6 0.00 0.0000000 76.8
2020-09-27 01:50:00 72.6 13.5 19.9 72.6 72.6 7.2 8.3 7.3 316.1 310.7 0.00 0.0000000 76.7
2020-09-27 01:55:00 72.4 12.3 17.4 72.4 72.4 5.6 7.1 6.0 308.3 320.5 0.00 0.0000000 76.6
2020-09-27 02:00:00 71.3 13.0 17.8 71.3 71.3 4.0 6.5 5.3 317.2 315.8 0.00 0.0000000 76.5
2020-09-27 02:05:00 70.9 13.0 17.5 70.9 70.9 4.7 5.5 4.9 328.7 318.3 0.00 0.0000000 76.4
2020-09-27 02:10:00 70.9 12.9 17.5 70.9 70.9 4.4 6.2 5.2 312.0 319.8 0.00 0.0000000 76.3
2020-09-27 02:15:00 70.1 13.4 17.7 70.1 70.1 4.4 4.6 3.9 329.9 314.9 0.00 0.0000000 76.2
2020-09-27 02:20:00 70.2 13.1 17.2 70.2 70.2 3.1 4.4 3.5 323.3 330.3 0.00 0.0000000 76.1
2020-09-27 02:25:00 70.4 13.0 17.3 70.4 70.4 3.5 4.6 3.5 312.8 323.9 0.00 0.0000000 76.0
2020-09-27 02:30:00 70.7 12.8 17.0 70.7 70.7 3.5 4.2 3.6 327.9 322.4 0.00 0.0000000 75.9
2020-09-27 02:35:00 70.3 13.0 17.2 70.3 70.3 4.9 4.9 3.9 296.4 324.1 0.00 0.0000000 75.8
2020-09-27 02:40:00 70.6 12.9 17.1 70.6 70.6 4.6 5.6 5.0 329.1 320.4 0.00 0.0000000 75.7
2020-09-27 02:45:00 70.6 12.8 17.0 70.6 70.6 5.3 5.3 4.8 332.1 324.0 0.00 0.0000000 75.6
2020-09-27 02:50:00 70.6 12.9 17.1 70.6 70.6 4.6 5.1 4.7 295.7 309.2 0.00 0.0000000 75.5
2020-09-27 02:55:00 68.8 16.2 21.0 68.8 68.8 5.1 5.5 4.9 248.1 274.5 0.00 0.0000000 75.4
2020-09-27 03:00:00 66.9 17.9 21.8 66.9 66.9 5.6 6.0 5.1 278.5 267.5 0.00 0.0000000 75.3
2020-09-27 03:05:00 65.7 19.4 22.8 65.7 65.7 4.9 6.0 4.9 283.2 284.3 0.00 0.0000000 75.2
2020-09-27 03:10:00 65.2 19.6 22.6 65.2 65.2 4.7 5.5 4.5 298.7 297.2 0.00 0.0000000 75.1
2020-09-27 03:15:00 64.5 17.6 19.5 64.5 64.5 4.6 5.1 4.6 305.4 303.6 0.00 0.0000000 75.0
2020-09-27 03:20:00 64.8 17.2 19.2 64.8 64.8 4.7 5.3 4.6 293.0 301.5 0.00 0.0000000 74.9
2020-09-27 03:25:00 64.2 18.7 20.7 64.2 64.2 4.0 4.7 4.3 295.4 292.9 0.00 0.0000000 74.8
2020-09-27 03:30:00 63.7 18.4 19.9 63.7 63.7 3.5 4.4 3.6 319.2 299.0 0.00 0.0000000 74.8
2020-09-27 03:35:00 64.4 17.2 18.9 64.4 64.4 2.1 3.7 2.8 2.8 315.4 0.00 0.0000000 74.6
2020-09-27 03:40:00 64.3 17.1 18.7 64.3 64.3 1.3 3.1 2.5 1.0 1.1 0.00 0.0000000 74.5
2020-09-27 03:45:00 64.9 16.8 18.8 64.9 64.9 3.7 3.8 2.0 19.6 9.6 0.00 0.0000000 74.4
2020-09-27 03:50:00 65.2 16.7 18.8 65.2 65.2 2.1 3.8 2.8 11.5 4.1 0.00 0.0000000 74.4
2020-09-27 03:55:00 66.1 16.0 18.6 66.1 66.1 3.3 3.5 2.5 297.8 308.8 0.00 0.0000000 74.2
2020-09-27 04:00:00 66.3 18.4 22.0 66.3 66.3 8.3 8.3 6.4 270.8 277.3 0.00 0.0000000 74.1
2020-09-27 04:05:00 63.2 21.4 23.1 63.2 63.2 6.9 8.1 7.4 273.3 271.0 0.00 0.0000000 74.0
2020-09-27 04:10:00 63.5 21.5 23.4 63.5 63.5 6.0 7.1 5.9 274.7 279.1 0.00 0.0000000 73.9
2020-09-27 04:15:00 62.9 20.8 22.1 62.9 62.9 6.9 8.3 7.0 258.5 263.9 0.00 0.0000000 73.8
2020-09-27 04:20:00 62.2 21.6 22.5 62.2 62.2 4.4 6.9 5.4 260.1 266.4 0.00 0.0000000 73.7
2020-09-27 04:25:00 62.0 21.5 22.2 62.0 62.0 3.8 4.4 3.7 307.4 287.4 0.00 0.0000000 73.6
2020-09-27 04:30:00 63.8 18.8 20.6 63.8 63.8 4.0 4.0 3.6 320.8 312.2 0.00 0.0000000 73.5
2020-09-27 04:35:00 64.6 18.1 20.2 64.6 64.6 5.1 5.1 4.5 296.9 309.0 0.00 0.0000000 73.5
2020-09-27 04:40:00 64.1 19.2 21.2 64.1 64.1 6.0 6.2 5.7 289.5 294.2 0.00 0.0000000 73.4
2020-09-27 04:45:00 63.1 21.0 22.4 63.1 63.1 4.6 6.3 5.0 317.2 300.7 0.00 0.0000000 73.3
2020-09-27 04:50:00 63.7 18.2 19.7 63.7 63.7 3.7 4.9 4.0 342.9 335.1 0.00 0.0000000 73.2
2020-09-27 04:55:00 63.8 18.2 19.7 63.8 63.8 6.0 6.2 5.0 303.9 324.0 0.00 0.0000000 73.1
2020-09-27 05:00:00 63.2 22.0 23.8 63.2 63.2 6.5 7.1 6.4 290.0 293.7 0.00 0.0000000 73.0
2020-09-27 05:05:00 62.5 22.4 23.6 62.5 62.5 4.7 7.1 5.6 317.8 301.4 0.00 0.0000000 72.9
2020-09-27 05:10:00 64.0 18.3 19.9 64.0 64.0 5.3 5.8 5.5 322.0 318.1 0.00 0.0000000 72.8
2020-09-27 05:15:00 64.7 17.3 19.3 64.7 64.7 3.5 5.1 4.6 0.2 327.4 0.00 0.0000000 72.7
2020-09-27 05:20:00 64.7 17.3 19.2 64.7 64.7 4.4 4.9 4.0 326.1 335.8 0.00 0.0000000 72.7
2020-09-27 05:25:00 65.1 16.9 19.0 65.1 65.1 3.8 4.6 3.7 26.7 346.5 0.00 0.0000000 72.6
2020-09-27 05:30:00 65.2 16.8 19.0 65.2 65.2 3.7 4.6 3.9 45.9 36.2 0.00 0.0000000 72.5
2020-09-27 05:35:00 63.7 18.0 19.4 63.7 63.7 3.5 5.1 4.2 104.7 72.4 0.00 0.0000000 72.4
2020-09-27 05:40:00 62.6 18.8 19.5 62.6 62.6 4.0 4.0 3.3 96.8 93.0 0.00 0.0000000 72.3
2020-09-27 05:45:00 62.9 18.6 19.5 62.9 62.9 3.5 5.6 4.5 57.0 78.8 0.00 0.0000000 72.2
2020-09-27 05:50:00 62.0 19.2 19.5 62.0 62.0 2.6 4.6 3.0 65.4 53.4 0.00 0.0000000 72.1
2020-09-27 05:55:00 62.1 19.2 19.5 62.1 62.1 3.3 4.6 3.6 69.9 61.6 0.00 0.0000000 72.1
2020-09-27 06:00:00 61.8 19.8 20.0 61.8 61.8 0.8 3.8 2.4 148.4 107.6 0.00 0.0000000 72.0
2020-09-27 06:05:00 61.6 19.8 19.9 61.6 61.6 3.3 3.5 1.8 95.8 116.6 0.00 0.0000000 71.9
2020-09-27 06:10:00 61.5 20.1 20.2 61.5 61.5 3.0 3.3 2.8 107.0 127.5 0.00 0.0000000 71.8
2020-09-27 06:15:00 61.3 21.0 21.0 61.3 61.3 3.3 3.8 3.0 163.4 136.2 0.00 0.0000000 71.7
2020-09-27 06:20:00 61.5 21.5 21.7 61.5 61.5 3.5 4.9 3.8 189.3 160.9 0.00 0.0000000 71.6
2020-09-27 06:25:00 60.8 23.4 23.1 60.8 60.8 4.4 4.7 3.6 162.8 174.2 0.00 0.0000000 71.5
2020-09-27 06:30:00 61.8 23.4 23.9 61.8 61.8 3.7 5.3 4.0 146.5 156.9 0.00 0.0000000 71.5
2020-09-27 06:35:00 61.6 23.7 24.1 61.6 61.6 2.8 6.3 4.3 166.6 180.0 0.00 0.0000000 71.4
2020-09-27 06:40:00 60.8 23.9 23.6 60.8 60.8 3.1 5.1 3.3 164.8 170.8 0.00 0.0000000 71.3
2020-09-27 06:45:00 58.7 25.5 23.5 58.7 58.7 3.5 4.4 3.5 194.9 177.5 0.00 0.0000057 71.2
2020-09-27 06:50:00 58.7 25.7 23.6 58.7 58.7 4.0 4.9 4.0 183.6 188.2 0.00 0.0006566 71.2
2020-09-27 06:55:00 58.7 25.4 23.3 58.7 58.7 0.0 5.5 2.4 211.3 194.3 0.00 0.0018849 71.1
2020-09-27 07:00:00 59.1 25.6 23.9 59.1 59.1 3.1 3.5 2.0 156.3 194.0 0.00 0.0054041 71.0
2020-09-27 07:05:00 60.8 27.9 27.3 60.8 60.8 1.0 3.0 1.4 88.1 82.8 0.00 0.0096754 70.9
2020-09-27 07:10:00 61.4 27.5 27.5 61.4 61.4 0.0 0.8 0.0 116.4 105.5 0.00 0.0137429 70.8
2020-09-27 07:15:00 61.3 28.1 28.0 61.3 61.3 2.1 2.1 0.2 19.2 4.4 0.00 0.0177388 70.8
2020-09-27 07:20:00 62.1 28.2 28.8 62.1 62.1 4.2 5.8 4.0 60.3 51.6 0.00 0.0221394 70.7
2020-09-27 07:25:00 61.3 29.0 28.7 61.3 61.3 5.1 5.3 4.4 54.6 54.4 0.00 0.0267620 70.6
2020-09-27 07:30:00 61.8 31.6 31.3 61.8 61.8 4.9 6.9 5.9 61.7 58.9 0.00 0.0319778 70.6
2020-09-27 07:35:00 62.9 31.6 32.3 62.9 62.9 4.0 6.7 5.6 51.2 61.4 0.00 0.0365210 70.5
2020-09-27 07:40:00 63.7 31.2 32.7 63.7 63.7 5.5 6.2 4.3 78.0 65.7 0.00 0.0406525 70.5
2020-09-27 07:45:00 64.2 31.5 33.3 64.2 64.2 5.8 7.1 5.5 57.9 60.7 0.00 0.0454430 70.5
2020-09-27 07:50:00 65.1 31.4 34.0 65.1 65.1 7.8 8.0 5.9 54.7 60.8 0.00 0.0500486 70.5
2020-09-27 07:55:00 65.9 31.5 34.8 65.9 65.9 7.2 9.2 6.5 71.6 69.4 0.00 0.0541285 70.5
2020-09-27 08:00:00 66.2 31.9 35.3 66.2 66.2 6.2 9.4 6.8 56.3 62.5 0.00 0.0573130 70.5
2020-09-27 08:05:00 66.7 31.4 35.4 66.7 66.7 9.9 9.9 7.6 61.2 55.2 0.00 0.0617553 70.5
2020-09-27 08:10:00 67.0 31.3 35.7 67.0 67.0 10.1 13.1 8.6 60.7 48.4 0.00 0.0631684 70.6
2020-09-27 08:15:00 67.3 31.7 36.2 67.3 67.3 10.8 11.7 8.9 63.7 51.6 0.00 0.0678299 70.7
2020-09-27 08:20:00 67.6 32.1 36.8 67.6 67.6 8.0 12.1 9.7 65.6 49.6 0.00 0.0753342 70.8
2020-09-27 08:25:00 67.7 32.0 36.8 67.7 67.7 9.9 12.6 9.4 36.9 46.8 0.00 0.0777177 70.8
2020-09-27 08:30:00 68.2 31.4 36.7 68.2 68.2 8.7 12.8 8.7 49.4 48.2 0.00 0.0819793 70.9
2020-09-27 08:35:00 67.9 32.2 37.1 67.9 67.9 9.0 13.1 9.9 51.7 54.1 0.00 0.0870195 71.0
2020-09-27 08:40:00 68.2 31.7 37.0 68.2 68.2 7.1 11.2 8.5 55.5 44.9 0.00 0.0941625 71.2
2020-09-27 08:45:00 68.4 31.3 36.8 68.4 68.4 5.5 10.1 6.9 35.5 41.3 0.00 0.1016943 71.3
2020-09-27 08:50:00 68.7 31.2 37.0 68.7 68.7 5.1 9.9 6.1 49.9 26.7 0.00 0.1007813 71.4
2020-09-27 08:55:00 68.7 31.1 37.0 68.7 68.7 7.6 10.3 6.6 28.7 28.8 0.00 0.1082151 71.6
2020-09-27 09:00:00 68.7 31.7 37.4 68.7 68.7 5.8 10.6 7.7 41.2 10.2 0.00 0.1160663 71.7
2020-09-27 09:05:00 68.5 31.8 37.3 68.5 68.5 4.9 8.7 7.0 49.6 34.7 0.00 0.1239377 71.8
2020-09-27 09:10:00 69.1 31.6 37.7 69.1 69.1 11.0 11.0 7.8 17.5 10.7 0.00 0.1267793 72.0
2020-09-27 09:15:00 69.2 32.6 38.5 69.2 69.2 8.3 10.1 7.8 42.0 21.7 0.00 0.1279941 72.1
2020-09-27 09:20:00 68.8 33.2 38.7 68.8 68.8 8.7 11.9 8.7 51.6 29.8 0.00 0.1373777 72.2
2020-09-27 09:25:00 68.7 33.2 38.6 68.7 68.7 9.2 10.3 8.4 28.7 31.7 0.00 0.1435582 72.2
2020-09-27 09:30:00 69.8 32.2 38.8 69.8 69.8 5.5 9.9 6.5 37.1 32.7 0.00 0.1475307 72.3
2020-09-27 09:35:00 70.4 32.0 39.2 70.4 70.4 8.1 11.5 6.9 30.9 33.8 0.00 0.1528832 72.4
2020-09-27 09:40:00 70.4 32.3 39.3 70.4 70.4 9.4 11.9 7.9 28.1 38.1 0.00 0.1574606 72.4
2020-09-27 09:45:00 70.4 32.0 39.1 70.4 70.4 7.2 12.4 8.3 7.0 17.1 0.00 0.1610284 72.5
2020-09-27 09:50:00 70.4 32.1 39.2 70.4 70.4 9.4 11.5 8.4 25.1 28.6 0.00 0.1655229 72.6
2020-09-27 09:55:00 70.3 32.0 39.1 70.3 70.3 7.6 12.2 8.5 16.1 22.9 0.00 0.1705816 72.6
2020-09-27 10:00:00 70.2 32.4 39.3 70.2 70.2 8.5 11.2 7.3 21.2 26.2 0.00 0.1740603 72.7
2020-09-27 10:05:00 70.9 31.5 39.2 70.9 70.9 8.5 11.9 8.6 50.7 29.9 0.00 0.1792212 72.7
2020-09-27 10:10:00 71.4 31.1 39.3 71.4 71.4 7.4 11.9 9.1 10.9 30.2 0.00 0.1832123 72.8
2020-09-27 10:15:00 71.1 30.9 38.9 71.1 71.1 5.8 11.5 8.9 344.3 19.0 0.00 0.1871546 72.8
2020-09-27 10:20:00 72.2 30.6 39.5 72.2 72.2 8.7 10.1 7.0 28.1 11.4 0.00 0.1907097 72.8
2020-09-27 10:25:00 72.1 31.3 40.1 72.1 72.1 8.7 10.8 7.5 7.1 23.1 0.00 0.1950302 72.9
2020-09-27 10:30:00 71.7 31.9 40.2 71.7 71.7 6.5 13.7 9.8 16.5 11.8 0.00 0.1984882 73.0
2020-09-27 10:35:00 72.9 30.8 40.4 72.9 72.9 8.5 12.6 7.7 40.9 25.1 0.00 0.2022663 73.0
2020-09-27 10:40:00 72.7 30.7 40.1 72.7 72.7 7.6 13.1 8.5 50.4 28.2 0.00 0.2054886 73.1
2020-09-27 10:45:00 72.7 31.2 40.5 72.7 72.7 7.8 13.9 9.0 13.1 23.5 0.00 0.2087297 73.3
2020-09-27 10:50:00 73.5 31.3 41.2 73.5 73.5 13.9 14.0 8.3 7.7 23.8 0.00 0.2125580 73.5
2020-09-27 10:55:00 74.0 31.4 41.8 74.0 74.0 9.7 12.2 8.8 26.0 13.1 0.00 0.2154175 73.7
2020-09-27 11:00:00 73.5 31.9 41.7 73.5 73.5 4.9 13.0 8.2 35.0 10.3 0.00 0.2190742 74.0
2020-09-27 11:05:00 73.7 31.9 41.9 73.7 73.7 4.4 9.6 6.1 32.5 37.3 0.00 0.2216021 74.4
2020-09-27 11:10:00 74.8 31.4 42.5 74.8 74.8 4.7 8.0 5.9 331.2 17.9 0.00 0.2247863 74.8
2020-09-27 11:15:00 75.5 30.7 42.5 75.5 75.5 5.1 7.8 5.8 37.8 52.4 0.00 0.2278550 75.2
2020-09-27 11:20:00 75.5 30.5 42.4 75.5 75.5 7.6 11.0 7.1 345.7 21.9 0.00 0.2297076 75.7
2020-09-27 11:25:00 75.8 30.3 42.4 75.8 75.8 4.7 8.0 4.2 77.7 46.1 0.00 0.2317219 76.1
2020-09-27 11:30:00 76.6 29.3 42.2 76.6 76.6 5.5 10.8 6.8 52.4 56.2 0.00 0.2334944 76.5
2020-09-27 11:35:00 77.6 28.3 42.2 77.6 77.6 6.5 10.1 7.6 0.0 38.6 0.00 0.2345837 77.0
2020-09-27 11:40:00 76.9 29.0 42.2 76.9 76.9 6.3 10.3 7.8 65.0 37.1 0.00 0.2387124 77.4
2020-09-27 11:45:00 77.2 29.1 42.5 77.2 77.2 9.4 11.5 7.1 24.2 48.2 0.00 0.2414149 77.9
2020-09-27 11:50:00 77.7 28.6 42.6 77.7 77.7 6.2 9.4 7.2 320.9 20.2 0.00 0.2420040 78.3
2020-09-27 11:55:00 77.4 28.3 42.0 77.4 77.4 5.6 13.7 8.7 40.6 38.9 0.00 0.2440607 78.8
2020-09-27 12:00:00 77.2 28.5 42.0 77.2 77.2 9.9 14.9 8.2 52.7 61.9 0.00 0.2458303 79.2
2020-09-27 12:05:00 78.1 27.6 42.0 78.1 78.1 7.4 11.3 8.1 16.7 29.8 0.00 0.2469925 79.7
2020-09-27 12:10:00 77.1 28.7 42.2 77.1 77.1 9.2 18.3 10.3 39.3 37.7 0.00 0.2474668 80.1
2020-09-27 12:15:00 78.2 28.1 42.5 78.2 78.2 12.1 13.0 9.1 85.0 46.5 0.00 0.2482117 80.5
2020-09-27 12:20:00 78.8 27.7 42.6 78.8 78.8 9.4 13.3 9.6 26.1 29.9 0.00 0.2488850 80.9
2020-09-27 12:25:00 79.3 26.6 42.1 79.3 79.3 11.5 13.9 8.8 61.4 21.7 0.00 0.2491268 81.3
2020-09-27 12:30:00 79.4 27.4 42.9 79.4 79.4 4.9 15.3 9.5 26.9 39.6 0.00 0.2495665 81.7
2020-09-27 12:35:00 78.8 27.5 42.5 78.8 78.8 11.2 11.2 7.8 35.0 40.3 0.00 0.2496727 82.1
2020-09-27 12:40:00 79.0 27.0 42.2 79.0 79.0 8.3 14.2 9.4 0.6 33.5 0.00 0.2499309 82.5
2020-09-27 12:45:00 79.9 26.3 42.2 79.9 79.9 10.1 14.9 8.1 49.6 40.8 0.00 0.2502951 82.8
2020-09-27 12:50:00 80.1 26.0 42.1 80.1 80.1 7.4 15.6 12.0 0.2 46.2 0.00 0.2503321 83.2
2020-09-27 12:55:00 81.4 25.0 42.2 81.4 81.4 10.3 12.4 9.0 30.6 46.5 0.00 0.2502757 83.5
2020-09-27 13:00:00 81.4 24.5 41.6 81.4 81.4 9.6 13.1 9.8 70.2 41.9 0.00 0.2499438 83.9
2020-09-27 13:05:00 80.5 25.2 41.7 80.5 80.5 13.0 18.3 12.5 64.9 53.2 0.00 0.2493313 84.2
2020-09-27 13:10:00 80.1 25.4 41.5 80.1 80.1 9.9 16.9 11.4 32.8 38.8 0.00 0.2485625 84.5
2020-09-27 13:15:00 80.7 25.2 41.8 80.7 80.7 14.2 18.0 11.5 39.7 47.5 0.00 0.2475627 84.8
2020-09-27 13:20:00 80.4 24.7 41.0 80.4 80.4 10.1 16.2 11.7 66.2 42.8 0.00 0.2465842 85.1
2020-09-27 13:25:00 81.0 24.6 41.4 81.0 81.0 11.5 15.6 12.0 15.0 54.7 0.00 0.2458231 85.4
2020-09-27 13:30:00 80.7 24.6 41.1 80.7 80.7 13.3 17.2 12.7 62.6 56.5 0.00 0.2452078 85.7
2020-09-27 13:35:00 80.7 24.6 41.1 80.7 80.7 8.8 16.4 12.0 38.6 41.1 0.00 0.2434605 85.9
2020-09-27 13:40:00 81.3 24.1 41.1 81.3 81.3 12.4 13.0 9.4 30.5 40.1 0.00 0.2415303 86.1
2020-09-27 13:45:00 81.0 23.9 40.8 81.0 81.0 10.1 16.2 11.4 45.0 38.7 0.00 0.2393974 86.4
2020-09-27 13:50:00 80.3 24.2 40.4 80.3 80.3 9.2 16.2 11.7 52.2 54.5 0.00 0.2378276 86.6
2020-09-27 13:55:00 80.9 24.3 41.1 80.9 80.9 9.6 17.1 10.1 58.5 61.0 0.00 0.2358404 86.8
2020-09-27 14:00:00 81.2 23.7 40.6 81.2 81.2 13.9 18.3 10.9 42.0 44.2 0.00 0.2335729 87.0
2020-09-27 14:05:00 80.7 23.6 40.1 80.7 80.7 11.7 17.8 11.0 34.9 33.5 0.00 0.2311694 87.2
2020-09-27 14:10:00 80.2 23.9 40.0 80.2 80.2 7.1 18.3 11.2 30.8 44.4 0.00 0.2291020 87.4
2020-09-27 14:15:00 80.6 23.1 39.5 80.6 80.6 12.2 18.5 12.2 56.7 38.7 0.00 0.2267721 87.5
2020-09-27 14:20:00 80.7 22.9 39.3 80.7 80.7 11.9 15.1 11.3 63.0 32.9 0.00 0.2241980 87.7
2020-09-27 14:25:00 81.6 22.4 39.5 81.6 81.6 15.8 15.8 12.8 49.0 55.3 0.00 0.2212807 87.9
2020-09-27 14:30:00 80.3 23.1 39.3 80.3 80.3 14.9 18.3 13.9 53.2 55.3 0.00 0.2187376 88.0
2020-09-27 14:35:00 81.0 22.7 39.4 81.0 81.0 11.7 16.5 11.8 27.7 42.3 0.00 0.2152928 88.1
2020-09-27 14:40:00 80.8 23.1 39.6 80.8 80.8 14.9 18.7 14.5 28.2 52.3 0.00 0.2120654 88.3
2020-09-27 14:45:00 80.3 23.2 39.4 80.3 80.3 13.9 20.1 14.7 69.2 56.5 0.00 0.2088732 88.4
2020-09-27 14:50:00 80.5 23.5 39.8 80.5 80.5 17.8 17.8 15.0 78.6 65.4 0.00 0.2065679 88.5
2020-09-27 14:55:00 80.3 23.4 39.6 80.3 80.3 16.7 20.8 16.6 63.7 65.6 0.00 0.2020936 88.6
2020-09-27 15:00:00 80.0 23.8 39.7 80.0 80.0 21.0 21.0 15.6 58.8 58.4 0.00 0.1979889 88.6
2020-09-27 15:05:00 79.5 23.9 39.4 79.5 79.5 14.0 23.5 16.1 46.7 57.5 0.00 0.1949991 88.7
2020-09-27 15:10:00 79.8 23.7 39.5 79.8 79.8 18.7 19.8 15.9 48.4 56.1 0.00 0.1905465 88.7
2020-09-27 15:15:00 79.7 23.9 39.7 79.7 79.7 8.7 19.4 14.6 62.3 52.7 0.00 0.1872713 88.8
2020-09-27 15:20:00 80.0 23.4 39.3 80.0 80.0 13.1 19.9 14.7 54.2 49.5 0.00 0.1836304 88.8
2020-09-27 15:25:00 80.1 23.2 39.2 80.1 80.1 14.0 18.7 13.4 40.9 45.8 0.00 0.1784853 88.8
2020-09-27 15:30:00 78.8 23.9 38.8 78.8 78.8 19.0 23.2 17.0 62.0 47.9 0.00 0.1748540 88.8
2020-09-27 15:35:00 79.8 23.3 39.1 79.8 79.8 19.0 21.9 16.8 64.5 55.7 0.00 0.1715889 88.8
2020-09-27 15:40:00 78.6 23.9 38.7 78.6 78.6 19.6 21.9 15.6 49.3 45.7 0.00 0.1669226 88.8
2020-09-27 15:45:00 79.1 23.4 38.5 79.1 79.1 12.6 19.0 14.8 74.2 47.4 0.00 0.1629867 88.8
2020-09-27 15:50:00 78.4 23.4 38.0 78.4 78.4 19.6 22.6 16.4 51.0 48.1 0.00 0.1577193 88.7
2020-09-27 15:55:00 78.5 23.6 38.2 78.5 78.5 14.7 18.0 14.9 71.9 46.0 0.00 0.1529883 88.7
2020-09-27 16:00:00 77.8 23.5 37.6 77.8 77.8 18.3 24.6 19.8 46.2 59.8 0.00 0.1489237 88.6
2020-09-27 16:05:00 77.9 23.7 37.9 77.9 77.9 14.2 24.2 19.2 38.9 63.1 0.00 0.1447039 88.6
2020-09-27 16:10:00 77.9 24.3 38.5 77.9 77.9 21.9 23.5 16.7 62.9 56.3 0.00 0.1398667 88.5
2020-09-27 16:15:00 76.7 27.1 40.3 76.7 76.7 23.3 24.6 20.0 43.8 54.3 0.00 0.1347672 88.4
2020-09-27 16:20:00 76.8 27.0 40.3 76.8 76.8 20.8 23.2 18.8 61.5 62.6 0.00 0.1294362 88.3
2020-09-27 16:25:00 76.3 27.3 40.2 76.3 76.3 20.8 25.1 18.5 62.2 58.4 0.00 0.1245186 88.2
2020-09-27 16:30:00 76.1 27.7 40.4 76.1 76.1 15.8 23.5 18.2 69.0 61.2 0.00 0.1192451 88.1
2020-09-27 16:35:00 75.9 27.6 40.0 75.9 75.9 21.4 22.6 16.7 70.7 69.9 0.00 0.1140896 87.9
2020-09-27 16:40:00 75.8 27.9 40.3 75.8 75.8 16.9 25.3 18.6 88.2 66.5 0.00 0.1091902 87.7
2020-09-27 16:45:00 75.7 28.9 41.0 75.7 75.7 17.6 24.0 18.0 72.2 66.8 0.00 0.1030523 87.6
2020-09-27 16:50:00 75.7 27.1 39.4 75.7 75.7 17.1 22.4 16.5 67.8 68.9 0.00 0.0974646 87.4
2020-09-27 16:55:00 75.2 26.4 38.4 75.2 75.2 14.9 24.0 16.7 65.5 70.1 0.00 0.0929337 87.3
2020-09-27 17:00:00 74.7 26.5 38.0 74.7 74.7 18.1 22.3 17.7 59.5 62.6 0.00 0.0883794 87.1
2020-09-27 17:05:00 74.3 27.2 38.3 74.3 74.3 14.9 24.4 17.2 68.3 61.2 0.00 0.0837250 87.0
2020-09-27 17:10:00 74.4 27.1 38.3 74.4 74.4 17.6 21.9 16.1 65.7 68.7 0.00 0.0784642 86.8
2020-09-27 17:15:00 73.9 27.3 38.1 73.9 73.9 16.4 21.0 17.2 68.9 63.6 0.00 0.0727334 86.6
2020-09-27 17:20:00 73.6 27.9 38.3 73.6 73.6 17.8 23.0 18.3 74.2 66.4 0.00 0.0677753 86.4
2020-09-27 17:25:00 73.7 28.3 38.9 73.7 73.7 16.2 22.3 16.1 80.0 59.9 0.00 0.0630371 86.3
2020-09-27 17:30:00 73.2 28.3 38.4 73.2 73.2 17.6 22.6 17.1 65.7 59.9 0.00 0.0578260 86.1
2020-09-27 17:35:00 72.6 28.2 37.8 72.6 72.6 15.6 22.1 17.7 66.5 52.7 0.00 0.0533238 85.9
2020-09-27 17:40:00 72.6 28.5 38.1 72.6 72.6 17.8 19.9 16.8 57.5 51.7 0.00 0.0487285 85.7
2020-09-27 17:45:00 72.3 28.9 38.2 72.3 72.3 14.7 20.8 15.9 43.7 57.0 0.00 0.0444933 85.5
2020-09-27 17:50:00 72.2 28.8 38.0 72.2 72.2 12.8 21.4 16.1 45.8 55.5 0.00 0.0396936 85.3
2020-09-27 17:55:00 71.9 28.8 37.7 71.9 71.9 15.5 19.4 15.1 71.7 53.3 0.00 0.0349082 85.1
2020-09-27 18:00:00 71.4 29.2 37.7 71.4 71.4 18.3 21.0 16.5 55.1 59.2 0.00 0.0305778 84.9
2020-09-27 18:05:00 70.8 30.4 38.2 70.8 70.8 16.9 22.4 17.5 63.2 64.0 0.00 0.0262150 84.8
2020-09-27 18:10:00 70.3 31.2 38.4 70.3 70.3 22.1 26.0 18.5 59.8 70.1 0.00 0.0214693 84.6
2020-09-27 18:15:00 69.8 31.8 38.4 69.8 69.8 25.1 25.1 17.2 57.9 70.3 0.00 0.0170854 84.3
2020-09-27 18:20:00 69.3 32.1 38.2 69.3 69.3 21.2 24.6 18.7 73.3 68.6 0.00 0.0129145 84.2
2020-09-27 18:25:00 69.0 32.4 38.3 69.0 69.0 19.6 24.9 17.6 53.3 66.0 0.00 0.0090112 84.0
2020-09-27 18:30:00 68.8 32.9 38.4 68.8 68.8 18.0 23.2 17.9 58.9 66.2 0.00 0.0056777 83.8
2020-09-27 18:35:00 68.3 33.0 38.1 68.3 68.3 17.6 21.2 16.7 96.8 66.9 0.00 0.0030591 83.6
2020-09-27 18:40:00 67.8 33.4 38.0 67.8 67.8 10.8 23.0 15.6 74.5 67.9 0.00 0.0012539 83.4
2020-09-27 18:45:00 67.7 33.7 38.1 67.7 67.7 19.4 22.8 16.6 78.1 69.3 0.00 0.0001497 83.2
2020-09-27 18:50:00 67.2 33.7 37.7 67.2 67.2 12.1 23.9 16.6 64.7 64.4 0.00 0.0000000 83.0
2020-09-27 18:55:00 67.1 33.9 37.7 67.1 67.1 16.4 22.8 16.2 54.4 63.5 0.00 0.0000000 82.8
2020-09-27 19:00:00 66.9 34.6 38.0 66.9 66.9 19.9 20.8 15.9 64.1 64.4 0.00 0.0000000 82.6
2020-09-27 19:05:00 66.8 34.7 38.0 66.8 66.8 12.8 22.4 17.9 69.1 68.6 0.00 0.0000000 82.4
2020-09-27 19:10:00 66.5 34.8 37.8 66.5 66.5 9.0 20.6 14.2 68.6 59.4 0.00 0.0000000 82.2
2020-09-27 19:15:00 66.2 35.4 38.0 66.2 66.2 11.7 16.0 12.9 75.0 68.7 0.00 0.0000000 82.0
2020-09-27 19:20:00 65.9 35.1 37.5 65.9 65.9 11.9 18.5 13.6 72.2 69.3 0.00 0.0000000 81.8
2020-09-27 19:25:00 65.6 34.7 37.0 65.6 65.6 18.3 22.6 16.4 72.6 66.3 0.00 0.0000000 81.6
2020-09-27 19:30:00 65.2 34.8 36.7 65.2 65.2 13.9 22.1 17.0 66.1 67.5 0.00 0.0000000 81.4
2020-09-27 19:35:00 64.9 35.2 36.7 64.9 64.9 16.9 18.3 13.8 57.2 65.8 0.00 0.0000000 81.2
2020-09-27 19:40:00 64.7 35.2 36.5 64.7 64.7 17.8 21.9 16.1 67.0 64.7 0.00 0.0000000 81.0
2020-09-27 19:45:00 64.7 35.5 36.7 64.7 64.7 16.5 20.8 17.0 60.1 61.8 0.00 0.0000000 80.8
2020-09-27 19:50:00 64.2 35.9 36.6 64.2 64.2 19.2 22.4 16.2 58.6 59.8 0.00 0.0000000 80.6
2020-09-27 19:55:00 64.2 35.9 36.6 64.2 64.2 16.4 23.5 19.0 54.1 65.2 0.00 0.0000000 80.4
2020-09-27 20:00:00 64.1 36.0 36.6 64.1 64.1 16.0 21.7 17.8 79.8 67.3 0.00 0.0000000 80.2
2020-09-27 20:05:00 63.7 36.6 36.6 63.7 63.7 19.8 23.2 16.8 59.2 60.3 0.00 0.0000000 80.0

Data is courtesy of the NM Climate Center. DO NOT USE IN LEGAL PROCEEDINGS.